LPPD/PDL METAR and TAF weather

Enter ICAO airport designator
Station Type Date Time Source
LPPD METAR 2020/02/29 03:00 UTC NOAA

LPPD 290300Z 26007KT 9999 SCT013 16/14 Q1020


Station Type Date Time Source
LPPD Decoded METAR 2020/02/29 03:00 UTC NOAA

Ponta Delgada / Nordela Acores , Portugal (LPPD) 37-44N 025-42W 72M
Feb 28, 2020 - 10:00 PM EST / 2020.02.29 0300 UTC
Wind: from the W (260 degrees) at 8 MPH (7 KT):0
Visibility: greater than 7 mile(s):0
Sky conditions: partly cloudy
Temperature: 60 F (16 C)
Dew Point: 57 F (14 C)
Relative Humidity: 87%
Pressure (altimeter): 30.12 in. Hg (1020 hPa)
ob: LPPD 290300Z 26007KT 9999 SCT013 16/14 Q1020
cycle: 3

Station Type Date Time Source
LPPD TAF 2020/02/28 18:18 UTC NOAA

TAF LPPD 281700Z 2818/2918 29015KT 9999 FEW008 SCT015
BECMG 2818/2821 32012KT
BECMG 2900/2903 26012KT FEW012 BKN025

Example: see airport list